首页
METAR-TAF:

METAR-TAF

机场 :

特拉帕尼, 意大利

纬度: 37-55N, 经度: 012-30E, 海拔: 7米

当前天气观测

该预报发布于1小时和14分钟前的09:55 UTC
风速13节,风向南转南东
温度 19°C
湿度 73%
气压 1015 hPa
能见度10公里或以上
少量云层高于2500英尺

METAR: LICT 220955Z 15013KT 9999 FEW025 19/14 Q1015 RMK FEW VIS MIN 9999 WIND THR13 14009KT BLU

时间: 12:09 (11:09 UTC)

预报

该预报发布于3小时和9分钟前的08:00 UTC
预报有效从22日的 09点(UTC)到 22日的 18点(UTC)
风速15节,风向南转南东
能见度10公里或以上
少量云层高于2500英尺

TAF: LICT 220800Z 2209/2218 16015KT 9999 FEW025

超过4000个机场的气象观测和天气预报(METAR&TAF报告)。

可查询的气象台以黄色和红色小点在地图上表示。

将鼠标移到小点上方,可查看气象台名称。

然后点击查看天气观测和预报。

如需切换地图:点击带黑十字的绿色按钮放大地图;点击带横线的绿色按钮缩小地图;或者点击绿色箭头查看邻近地区的地图。


METAR-TAF: